Grays River, WA (98621)

8:44 PM PST on January 23, 2018 (GMT -0800)
MTKMMO | | Change Station
Active Advisory: High Wind Warning

Elev 754 ft 46.35 °N, 123.51 °W | Updated 4 minutes ago

Overcast
Overcast
45.0 °F
Feels Like 45.0 °F
N
2.0
Wind Variable Wind from ENE
Gusts 12.0 mph

Today
High -- | Low -- °F
--% Chance of Precip.
Yesterday
High -- | Low -- °F
Precip. -- in
Pressure 29.67 in
Visibility 10.0 miles
Clouds Mostly Cloudy 2600 ft
Overcast 3500 ft
Dew Point Not available.
Humidity Not available.
Rainfall in
Snow Depth Not available.
7:46 AM 5:05 PM
Waxing Crescent, 42% visible
METAR KAST 240355Z AUTO 19021G37KT 10SM BKN026 OVC035 12/09 A2967 RMK AO2 PK WND 17042/0338 RAE40 SLP046 P0000 T01220089
Pressure 29.67 in
Visibility 10.0 miles
Clouds Mostly Cloudy 2600 ft
Overcast 3500 ft
Dew Point Not available.
Humidity Not available.
Rainfall in
Snow Depth Not available.
7:46 AM 5:05 PM
Waxing Crescent, 42% visible
METAR KAST 240355Z AUTO 19021G37KT 10SM BKN026 OVC035 12/09 A2967 RMK AO2 PK WND 17042/0338 RAE40 SLP046 P0000 T01220089

Get Your Daily Forecast Email!

Thanks for signing up!

Be on the lookout for a verification email in your inbox.

You'll start receiving severe weather alerts in your inbox..

×

10-Day Weather Forecast

Almanac

Astronomy

Jan. 23, 2018 Rise Set
Actual Time
Civil Twilight
Nautical Twilight
Astronomical Twilight
Moon
Length of Visible Light
Length of Day
Tomorrow will be .
, % of the Moon is Illuminated

Today's Extremes

State Highs State Lows

Community

WunderPhotos

Category 6

Welcome to Category 6. This is the collective home for Weather Underground's featured writeups by Dr. Jeff Masters (right), Bob Henson (left), Chris Burt, and other regular contributors.

Nearby

Air Quality

  Air Quality AQ Index Pollutant
Not available.

Snow Depth

Station Depth Elevation

Earthquake Activity

City Distance Mag. Time & Date
Minimum magnitude displayed is 2.5.

Coastal Water Temperatures

Place Temperature

Stations

Nearby Weather Stations

Station Location Temp. Windchill Dew Point Humidity Wind Precip. Elev Updated Type
                   

Watches & Warnings

High Wind Warning
Issued: 6:57 PM PST Jan. 23, 2018 – National Weather Service

... High Wind Warning now in effect until midnight PST tonight
near beaches and headlands...



* winds... south 30 to 40 mph with gusts to 60 mph.

* Location... beaches and headlands of the South Washington coast
and north Oregon coast. Winds will be considerably lighter
across the coastal communities.

* Timing... through midnight tonight.

* Impacts... strong winds may blow down trees, branches, and
power lines. Isolated power outages are possible. Travel may
be difficult, especially for high profile vehicles.




Precautionary/preparedness actions...

A High Wind Warning means hazardous weather conditions of strong
and damaging winds are imminent or highly likely in the warning
area.